KTVLKSTS

Guest
Details From KTVL - South Lake Tahoe
To KSTS - Charles M. Schulz - Sonoma Co
Flight Number -
Tags generated
Created
Modified
Stats Distance 134 nm / 248 km
Max Altitude 12,100 ft / 3,688 m
Waypoints 3
Social Downloads 2
Likes 0
Share VATSIM

Download

Looking for another format? Having issues loading an existing format? Contact us
Advertisement - Login to hide

Notes

Basic altitude profile: - Ascent Rate: 2500ft/min - Ascent Speed: 250kts - Cruise Altitude: 21000ft - Cruise Speed: 420kts - Descent Rate: 1500ft/min - Descent Speed: 250kts Options: - Use NATs: yes - Use PACOTS: yes - Use low airways: yes - Use high airways: yes

Route

KTVL CAPTO KSTS

ID Type Via Altitude Latitude Longitude Leg Dist Tot Dist Heading (true) Name
O KTVL APT - 0 ft / 0 m 38.89388˚ -119.99533˚ - 0 nm - South Lake Tahoe
CAPTO FIX - 12,100 ft / 3,688 m 38.67221˚ -121.62432˚ 77 nm 77 nm 261° / 260° -
O KSTS APT - 0 ft / 0 m 38.50898˚ -122.81292˚ 56 nm 134 nm 260° / 260° Charles M. Schulz - Sonoma Co

Altitude Profile

Advertisement - Login to hide

KTVL

Details ICAO KTVL (TVL)
Name South Lake Tahoe
Region United States
Timezone America/Los_Angeles (UTC-8.0)
Stats Elevation 6,264 ft / 1,909 m (AMSL)
Location 38.893882° -119.995335°
Runways 1
Magnetic Variation 13.321° E

METAR

KTVL 140553Z AUTO 17004KT 10SM CLR M04/M06 A3033 RMK AO2 SLP293 I1000 I6000 T10441061 10022 21044 53010

Decode

TAF

KTVL 140614Z 1406/1506 VRB04KT P6SM SCT250

Decode

Departure Runways

ID Width Length Bearing (true) Bearing (mag) Surface Threshold Offset Overrun Length
18 150 ft / 46 m 8,556 ft / 2,608 m 192.88° 179.56° Asphalt 0 ft / 0 m 0 ft / 0 m
36 150 ft / 46 m 8,556 ft / 2,608 m 12.88° 359.56° Asphalt 2,037 ft / 621 m 0 ft / 0 m

KSTS

Details ICAO KSTS (STS)
Name Charles M. Schulz - Sonoma Co
Region United States
Timezone America/Los_Angeles (UTC-8.0)
Stats Elevation 128 ft / 39 m (AMSL)
Location 38.508979° -122.812922°
Runways 2
Magnetic Variation 13.724° E

METAR

KSTS 140553Z AUTO 30003KT 9SM CLR 04/04 A3007 RMK AO2 SLP176 T00440039 10156 20044 51004

Decode

TAF

TAF KSTS 140526Z 1406/1506 00000KT 3SM BR FEW250 FM140800 00000KT 1/2SM FG VV002 FM141300 VRB03KT P6SM SKC

Decode

Destination Runways

ID Width Length Bearing (true) Bearing (mag) Surface Threshold Offset Overrun Length
01 98 ft / 30 m 5,008 ft / 1,527 m 29.05° 15.33° Asphalt 0 ft / 0 m 0 ft / 0 m
14 151 ft / 46 m 5,122 ft / 1,561 m 157.28° 143.56° Asphalt 0 ft / 0 m 200 ft / 61 m
19 98 ft / 30 m 5,008 ft / 1,527 m 209.05° 195.33° Asphalt 0 ft / 0 m 0 ft / 0 m
32 151 ft / 46 m 5,122 ft / 1,561 m 337.28° 323.56° Asphalt 0 ft / 0 m 200 ft / 61 m

Approach Navaids

Runway Type Ident Frequency Range Bearing (true) Bearing (mag) Slope Elevation
32 Localiser ISTS 109.30 MHz 18 nm / 33 km 337.27° 323.55° - 93 ft / 28 m (AMSL)
32 Glidescope ISTS 109.30 MHz 10 nm / 19 km 337.28° 323.56° 3.00° 118 ft / 36 m (AMSL)

Popular Alternatives